createdAt,value
2023-02-11T00:01:30.105Z,0.70
2023-02-11T00:03:58.820Z,0.70
2023-02-11T00:06:28.230Z,0.70
2023-02-11T00:08:56.473Z,0.60
2023-02-11T00:11:25.786Z,0.50
2023-02-11T00:13:53.882Z,0.50
2023-02-11T00:16:26.777Z,0.40
2023-02-11T00:18:55.641Z,0.30
2023-02-11T00:21:25.787Z,0.20
2023-02-11T00:23:54.883Z,0.10
2023-02-11T00:26:23.942Z,0.00
2023-02-11T00:28:52.709Z,-0.10
2023-02-11T00:31:22.566Z,-0.20
2023-02-11T00:33:52.348Z,-0.30
2023-02-11T00:36:22.005Z,-0.30
2023-02-11T00:38:50.868Z,-0.30
2023-02-11T00:41:19.465Z,-0.40
2023-02-11T00:43:47.893Z,-0.40
2023-02-11T00:46:16.690Z,-0.40
2023-02-11T00:48:45.029Z,-0.50
2023-02-11T00:51:14.545Z,-0.50
2023-02-11T00:53:42.901Z,-0.60
2023-02-11T00:56:10.981Z,-0.70
2023-02-11T00:58:39.575Z,-0.80
2023-02-11T01:01:07.781Z,-0.80
2023-02-11T01:03:36.634Z,-0.80
2023-02-11T01:06:04.909Z,-0.80
2023-02-11T01:08:34.360Z,-0.80
2023-02-11T01:11:03.261Z,-0.80
2023-02-11T01:13:32.062Z,-0.90
2023-02-11T01:16:00.470Z,-0.90
2023-02-11T01:18:28.798Z,-1.00
2023-02-11T01:20:57.122Z,-0.90
2023-02-11T01:23:25.285Z,-0.90
2023-02-11T01:25:55.251Z,-1.00
2023-02-11T01:28:24.759Z,-1.00
2023-02-11T01:30:54.378Z,-0.90
2023-02-11T01:33:22.547Z,-0.70
2023-02-11T01:35:51.251Z,-0.50
2023-02-11T01:38:21.539Z,-0.40
2023-02-11T01:40:50.644Z,-0.50
2023-02-11T01:43:20.254Z,-0.50
2023-02-11T01:46:00.267Z,-0.50
2023-02-11T01:48:30.145Z,-0.40
2023-02-11T01:51:00.488Z,-0.40
2023-02-11T01:53:47.492Z,-0.40
2023-02-11T01:56:34.625Z,-0.50
2023-02-11T01:59:06.875Z,-0.60
2023-02-11T02:01:35.938Z,-0.60
2023-02-11T02:04:07.394Z,-0.50
2023-02-11T02:06:38.300Z,-0.50
2023-02-11T02:09:08.716Z,-0.60
2023-02-11T02:11:39.477Z,-0.60
2023-02-11T02:14:08.860Z,-0.50
2023-02-11T02:16:37.875Z,-0.50
2023-02-11T02:19:19.176Z,-0.60
2023-02-11T02:22:17.801Z,-0.70
2023-02-11T02:24:57.826Z,-0.80
2023-02-11T02:27:31.025Z,-1.00
2023-02-11T02:30:08.574Z,-1.10
2023-02-11T02:32:44.338Z,-1.20
2023-02-11T02:35:15.986Z,-1.20
2023-02-11T02:37:49.298Z,-1.20
2023-02-11T02:40:20.392Z,-1.20
2023-02-11T02:42:48.978Z,-1.30
2023-02-11T02:45:17.525Z,-1.30
2023-02-11T02:47:47.226Z,-1.30
2023-02-11T02:50:17.145Z,-1.30
2023-02-11T02:52:49.366Z,-1.30
2023-02-11T02:55:29.482Z,-1.30
2023-02-11T02:58:04.107Z,-1.30
2023-02-11T03:00:36.973Z,-1.30
2023-02-11T03:03:14.207Z,-1.30
2023-02-11T03:05:46.523Z,-1.30
2023-02-11T03:08:17.845Z,-1.40
2023-02-11T03:10:47.582Z,-1.50
2023-02-11T03:13:18.167Z,-1.50
2023-02-11T03:15:47.841Z,-1.40
2023-02-11T03:18:19.574Z,-1.40
2023-02-11T03:20:50.121Z,-1.50
2023-02-11T03:23:20.744Z,-1.40
2023-02-11T03:25:51.668Z,-1.40
2023-02-11T03:28:24.539Z,-1.50
2023-02-11T03:30:56.380Z,-1.40
2023-02-11T03:33:28.438Z,-1.40
2023-02-11T03:35:57.482Z,-1.30
2023-02-11T03:38:28.844Z,-1.30
2023-02-11T03:40:57.391Z,-1.20
2023-02-11T03:43:27.762Z,-1.20
2023-02-11T03:45:56.230Z,-1.10
2023-02-11T03:48:27.238Z,-1.10
2023-02-11T03:50:55.607Z,-1.20
2023-02-11T03:53:24.035Z,-1.10
2023-02-11T03:55:53.308Z,-1.00
2023-02-11T03:58:21.737Z,-0.90
2023-02-11T04:00:49.979Z,-0.80
2023-02-11T04:03:19.111Z,-0.80
2023-02-11T04:05:49.001Z,-0.90
2023-02-11T04:08:17.230Z,-0.90
2023-02-11T04:10:45.362Z,-1.00
2023-02-11T04:13:13.418Z,-1.00
2023-02-11T04:15:41.451Z,-0.90
2023-02-11T04:18:09.457Z,-0.80
2023-02-11T04:20:37.817Z,-0.70
2023-02-11T04:23:07.231Z,-0.60
2023-02-11T04:25:35.319Z,-0.50
2023-02-11T04:28:03.339Z,-0.60
2023-02-11T04:30:31.473Z,-0.50
2023-02-11T04:32:59.566Z,-0.40
2023-02-11T04:35:27.626Z,-0.30
2023-02-11T04:37:55.706Z,-0.20
2023-02-11T04:40:25.271Z,-0.20
2023-02-11T04:42:53.507Z,0.00
2023-02-11T04:45:21.578Z,0.10
2023-02-11T04:47:49.841Z,0.20
2023-02-11T04:50:18.020Z,0.10
2023-02-11T04:52:46.098Z,0.00
2023-02-11T04:55:14.194Z,-0.10
2023-02-11T04:57:43.640Z,-0.10
2023-02-11T05:00:12.267Z,0.00
2023-02-11T05:02:40.528Z,0.10
2023-02-11T05:05:08.905Z,0.20
2023-02-11T05:07:37.014Z,0.20
2023-02-11T05:10:05.419Z,0.20
2023-02-11T05:12:33.449Z,0.30
2023-02-11T05:15:02.922Z,0.20
2023-02-11T05:17:31.483Z,0.10
2023-02-11T05:19:59.550Z,0.10
2023-02-11T05:22:27.736Z,0.10
2023-02-11T05:24:55.795Z,-0.10
2023-02-11T05:27:24.142Z,-0.30
2023-02-11T05:29:52.204Z,-0.40
2023-02-11T05:32:21.830Z,-0.50
2023-02-11T05:34:49.986Z,-0.60
2023-02-11T05:37:18.578Z,-0.70
2023-02-11T05:39:46.710Z,-0.70
2023-02-11T05:42:16.564Z,-0.70
2023-02-11T05:44:44.679Z,-0.80
2023-02-11T05:47:12.930Z,-0.90
2023-02-11T05:49:43.067Z,-1.10
2023-02-11T05:52:11.120Z,-1.30
2023-02-11T05:54:39.537Z,-1.40
2023-02-11T05:57:07.849Z,-1.40
2023-02-11T05:59:36.218Z,-1.50
2023-02-11T06:02:04.223Z,-1.50
2023-02-11T06:04:32.650Z,-1.40
2023-02-11T06:07:02.071Z,-1.30
2023-02-11T06:09:30.099Z,-1.30
2023-02-11T06:11:58.776Z,-1.20
2023-02-11T06:14:26.799Z,-1.10
2023-02-11T06:16:55.498Z,-0.90
2023-02-11T06:19:23.880Z,-0.80
2023-02-11T06:21:52.137Z,-0.80
2023-02-11T06:24:44.099Z,-0.80
2023-02-11T06:27:10.136Z,-0.70
2023-02-11T06:29:38.176Z,-0.50
2023-02-11T06:32:07.011Z,-0.40
2023-02-11T06:34:35.825Z,-0.30
2023-02-11T06:37:04.721Z,-0.30
2023-02-11T06:39:34.138Z,-0.40
2023-02-11T06:42:02.624Z,-0.40
2023-02-11T06:44:30.688Z,-0.40
2023-02-11T06:46:59.050Z,-0.50
2023-02-11T06:49:27.490Z,-0.50
2023-02-11T06:51:55.640Z,-0.50
2023-02-11T06:54:23.736Z,-0.50
2023-02-11T06:56:53.424Z,-0.40
2023-02-11T06:59:21.552Z,-0.30
2023-02-11T07:01:50.933Z,-0.20
2023-02-11T07:04:19.428Z,-0.20
2023-02-11T07:06:47.875Z,-0.20
2023-02-11T07:09:16.227Z,-0.20
2023-02-11T07:11:44.379Z,-0.20
2023-02-11T07:14:14.684Z,-0.20
2023-02-11T07:16:42.774Z,-0.20
2023-02-11T07:19:11.519Z,-0.10
2023-02-11T07:21:39.678Z,0.00
2023-02-11T07:24:10.756Z,0.10
2023-02-11T07:26:39.542Z,0.10
2023-02-11T07:29:07.873Z,0.00
2023-02-11T07:31:37.512Z,-0.10
2023-02-11T07:34:06.088Z,-0.30
2023-02-11T07:36:34.122Z,-0.20
2023-02-11T07:39:03.723Z,-0.30
2023-02-11T07:41:31.782Z,-0.30
2023-02-11T07:44:00.111Z,-0.30
2023-02-11T07:46:28.993Z,-0.20
2023-02-11T07:48:58.500Z,-0.20
2023-02-11T07:51:28.299Z,-0.20
2023-02-11T07:53:57.229Z,-0.20
2023-02-11T07:56:26.132Z,-0.10
2023-02-11T07:58:54.416Z,-0.10
2023-02-11T08:01:25.566Z,0.00
2023-02-11T08:03:54.088Z,0.00
2023-02-11T08:06:25.114Z,0.10
2023-02-11T08:08:53.400Z,0.20
2023-02-11T08:11:27.108Z,0.30
2023-02-11T08:13:56.347Z,0.40
2023-02-11T08:16:26.095Z,0.50
2023-02-11T08:18:55.223Z,0.70
2023-02-11T08:21:24.964Z,0.90
2023-02-11T08:23:53.913Z,1.10
2023-02-11T08:26:22.742Z,1.20
2023-02-11T08:28:52.378Z,1.30
2023-02-11T08:31:21.586Z,1.40
2023-02-11T08:33:50.474Z,1.50
2023-02-11T08:36:19.902Z,1.60
2023-02-11T08:38:52.871Z,1.70
2023-02-11T08:41:20.864Z,1.70
2023-02-11T08:43:49.484Z,1.70
2023-02-11T08:46:18.262Z,1.80
2023-02-11T08:48:47.068Z,1.80
2023-02-11T08:51:17.101Z,1.90
2023-02-11T08:53:45.396Z,1.80
2023-02-11T08:56:15.705Z,1.80
2023-02-11T08:58:43.971Z,1.90
2023-02-11T09:01:12.734Z,1.90
2023-02-11T09:03:40.899Z,1.80
2023-02-11T09:06:12.026Z,1.70
2023-02-11T09:08:44.213Z,1.90
2023-02-11T09:11:19.118Z,2.00
2023-02-11T09:13:47.233Z,2.00
2023-02-11T09:16:17.716Z,1.90
2023-02-11T09:18:46.482Z,2.00
2023-02-11T09:21:15.058Z,2.10
2023-02-11T09:23:44.950Z,2.20
2023-02-11T09:26:14.054Z,2.30
2023-02-11T09:28:43.888Z,2.40
2023-02-11T09:31:13.414Z,2.40
2023-02-11T09:33:47.998Z,2.60
2023-02-11T09:36:17.279Z,2.70
2023-02-11T09:38:47.828Z,2.80
2023-02-11T09:41:26.516Z,2.90
2023-02-11T09:43:57.318Z,3.00
2023-02-11T09:46:26.851Z,3.20
2023-02-11T09:48:56.780Z,3.30
2023-02-11T09:51:27.413Z,3.50
2023-02-11T09:54:00.944Z,3.70
2023-02-11T09:56:29.919Z,3.80
2023-02-11T09:58:59.586Z,3.90
2023-02-11T10:01:31.851Z,4.00
2023-02-11T10:04:06.032Z,4.00
2023-02-11T10:06:40.695Z,4.00
2023-02-11T10:09:27.005Z,4.00
2023-02-11T10:11:59.559Z,4.10
2023-02-11T10:14:39.509Z,4.00
2023-02-11T10:17:11.921Z,4.10
2023-02-11T10:19:48.674Z,4.10
2023-02-11T10:22:20.123Z,4.20
2023-02-11T10:24:51.644Z,4.30
2023-02-11T10:27:21.377Z,4.40
2023-02-11T10:29:54.987Z,4.60
2023-02-11T10:32:28.416Z,4.90
2023-02-11T10:35:00.679Z,5.30
2023-02-11T10:37:28.956Z,5.80
2023-02-11T10:39:57.140Z,6.00
2023-02-11T10:42:26.173Z,6.30
2023-02-11T10:44:58.560Z,6.40
2023-02-11T10:47:29.730Z,6.50
2023-02-11T10:50:03.244Z,6.30
2023-02-11T10:52:33.484Z,6.20
2023-02-11T10:55:03.574Z,6.10
2023-02-11T10:57:34.758Z,6.10
2023-02-11T11:00:06.448Z,5.90
2023-02-11T11:02:38.988Z,5.80
2023-02-11T11:05:16.116Z,5.80
2023-02-11T11:07:53.248Z,5.80
2023-02-11T11:10:27.502Z,5.80
2023-02-11T11:12:55.875Z,5.90
2023-02-11T11:15:26.282Z,5.90
2023-02-11T11:18:20.990Z,5.80
2023-02-11T11:20:56.564Z,5.80
2023-02-11T11:23:26.977Z,5.70
2023-02-11T11:26:01.402Z,5.80
2023-02-11T11:28:30.680Z,5.90
2023-02-11T11:31:00.768Z,5.90
2023-02-11T11:33:36.478Z,6.00
2023-02-11T11:36:10.198Z,7.50
2023-02-11T11:38:43.937Z,9.70
2023-02-11T11:41:16.092Z,10.80
2023-02-11T11:43:55.133Z,10.80
2023-02-11T11:46:27.083Z,10.20
2023-02-11T11:51:52.444Z,8.80
2023-02-11T11:54:21.771Z,8.10
2023-02-11T11:56:54.409Z,7.70
2023-02-11T11:59:23.365Z,7.40
2023-02-11T12:02:00.638Z,7.10
2023-02-11T12:04:38.372Z,7.00
2023-02-11T12:07:12.981Z,6.80
2023-02-11T12:09:46.830Z,6.70
2023-02-11T12:12:20.923Z,6.60
2023-02-11T12:14:53.280Z,6.60
2023-02-11T12:17:28.880Z,6.60
2023-02-11T12:20:08.416Z,6.60
2023-02-11T12:22:42.042Z,6.70
2023-02-11T12:25:24.440Z,6.80
2023-02-11T12:27:57.781Z,6.90
2023-02-11T12:30:34.293Z,7.00
2023-02-11T12:33:09.271Z,7.00
2023-02-11T12:35:41.882Z,7.00
2023-02-11T12:38:18.940Z,7.00
2023-02-11T12:40:50.303Z,7.00
2023-02-11T12:43:21.080Z,7.00
2023-02-11T12:46:00.190Z,6.90
2023-02-11T12:48:35.994Z,6.90
2023-02-11T12:51:09.153Z,6.90
2023-02-11T12:53:42.729Z,7.00
2023-02-11T12:56:16.226Z,6.90
2023-02-11T12:58:45.972Z,6.90
2023-02-11T13:01:20.394Z,6.90
2023-02-11T13:03:52.376Z,7.20
2023-02-11T13:06:23.615Z,8.50
2023-02-11T13:08:54.047Z,10.30
2023-02-11T13:11:24.166Z,11.40
2023-02-11T13:13:55.907Z,11.90
2023-02-11T13:16:30.907Z,12.70
2023-02-11T13:19:03.842Z,14.10
2023-02-11T13:21:37.171Z,15.30
2023-02-11T13:24:13.197Z,16.30
2023-02-11T13:26:45.834Z,17.10
2023-02-11T13:29:25.108Z,17.80
2023-02-11T13:31:57.150Z,18.00
2023-02-11T13:34:28.175Z,17.60
2023-02-11T13:36:57.861Z,16.80
2023-02-11T13:39:27.514Z,16.00
2023-02-11T13:42:04.601Z,15.30
2023-02-11T13:44:39.474Z,14.70
2023-02-11T13:47:09.754Z,14.10
2023-02-11T13:49:41.485Z,13.60
2023-02-11T13:52:20.415Z,13.00
2023-02-11T13:54:50.131Z,12.50
2023-02-11T13:57:32.439Z,12.40
2023-02-11T14:00:01.480Z,12.60
2023-02-11T14:02:50.893Z,12.40
2023-02-11T14:05:48.325Z,12.00
2023-02-11T14:08:38.717Z,11.50
2023-02-11T14:11:12.216Z,11.00
2023-02-11T14:14:11.020Z,10.60
2023-02-11T14:16:59.325Z,10.20
2023-02-11T14:19:32.455Z,9.90
2023-02-11T14:22:04.385Z,9.60
2023-02-11T14:24:53.286Z,9.40
2023-02-11T14:27:43.159Z,9.30
2023-02-11T14:30:30.288Z,9.10
2023-02-11T14:33:07.331Z,8.90
2023-02-11T14:35:40.594Z,8.70
2023-02-11T14:38:15.418Z,8.60
2023-02-11T14:40:50.192Z,8.60
2023-02-11T14:43:20.815Z,8.50
2023-02-11T14:45:52.379Z,8.40
2023-02-11T14:48:21.341Z,8.30
2023-02-11T14:50:51.317Z,8.20
2023-02-11T14:53:23.282Z,8.20
2023-02-11T14:55:52.643Z,8.10
2023-02-11T14:58:21.745Z,8.10
2023-02-11T15:01:01.389Z,8.10
2023-02-11T15:03:34.084Z,8.10
2023-02-11T15:06:04.485Z,8.00
2023-02-11T15:08:35.510Z,8.00
2023-02-11T15:11:07.409Z,8.00
2023-02-11T15:13:36.006Z,8.10
2023-02-11T15:16:07.351Z,8.10
2023-02-11T15:18:37.877Z,8.10
2023-02-11T15:21:06.708Z,8.10
2023-02-11T15:23:36.319Z,8.10
2023-02-11T15:26:13.373Z,8.10
2023-02-11T15:28:52.581Z,8.00
2023-02-11T15:31:23.561Z,8.00
2023-02-11T15:33:52.423Z,8.00
2023-02-11T15:36:21.759Z,8.00
2023-02-11T15:39:05.432Z,8.00
2023-02-11T15:41:36.783Z,8.00
2023-02-11T15:44:05.601Z,7.90
2023-02-11T15:46:37.599Z,7.90
2023-02-11T15:49:08.215Z,7.90
2023-02-11T15:51:37.444Z,7.90
2023-02-11T15:54:09.571Z,7.80
2023-02-11T15:56:43.161Z,7.80
2023-02-11T15:59:15.962Z,7.80
2023-02-11T16:01:45.461Z,7.80
2023-02-11T16:04:17.761Z,7.70
2023-02-11T16:06:47.857Z,7.70
2023-02-11T16:09:27.262Z,7.60
2023-02-11T16:11:58.019Z,7.60
2023-02-11T16:14:30.566Z,7.50
2023-02-11T16:16:59.863Z,7.50
2023-02-11T16:19:29.065Z,7.50
2023-02-11T16:21:59.437Z,7.40
2023-02-11T16:24:30.685Z,7.40
2023-02-11T16:27:01.110Z,7.40
2023-02-11T16:29:30.188Z,7.40
2023-02-11T16:32:07.145Z,7.30
2023-02-11T16:34:35.842Z,7.30
2023-02-11T16:37:04.912Z,7.30
2023-02-11T16:39:33.358Z,7.30
2023-02-11T16:42:07.418Z,7.20
2023-02-11T16:44:37.397Z,7.30
2023-02-11T16:47:07.688Z,7.30
2023-02-11T16:49:38.319Z,7.30
2023-02-11T16:52:07.465Z,7.30
2023-02-11T16:54:35.810Z,7.30
2023-02-11T16:57:10.670Z,7.30
2023-02-11T16:59:38.770Z,7.20
2023-02-11T17:02:07.384Z,7.30
2023-02-11T17:04:35.577Z,7.20
2023-02-11T17:07:03.896Z,7.20
2023-02-11T17:09:31.952Z,7.10
2023-02-11T17:12:00.426Z,7.10
2023-02-11T17:14:29.917Z,7.00
2023-02-11T17:16:58.607Z,7.00
2023-02-11T17:19:26.802Z,7.00
2023-02-11T17:21:55.680Z,7.00
2023-02-11T17:24:25.428Z,7.00
2023-02-11T17:26:54.964Z,7.00
2023-02-11T17:29:24.010Z,7.00
2023-02-11T17:31:53.998Z,7.00
2023-02-11T17:34:24.498Z,7.00
2023-02-11T17:36:52.799Z,7.00
2023-02-11T17:39:22.321Z,6.90
2023-02-11T17:41:50.484Z,6.90
2023-02-11T17:44:19.114Z,6.90
2023-02-11T17:46:47.354Z,6.80
2023-02-11T17:49:17.060Z,6.80
2023-02-11T17:51:45.160Z,6.80
2023-02-11T17:54:14.488Z,6.70
2023-02-11T17:56:42.669Z,6.70
2023-02-11T17:59:13.211Z,6.70
2023-02-11T18:01:42.782Z,6.60
2023-02-11T18:04:13.646Z,6.60
2023-02-11T18:06:43.082Z,6.60
2023-02-11T18:09:11.646Z,6.60
2023-02-11T18:11:40.463Z,6.50
2023-02-11T18:14:09.682Z,6.40
2023-02-11T18:16:39.432Z,6.30
2023-02-11T18:19:10.006Z,6.30
2023-02-11T18:21:38.264Z,6.20
2023-02-11T18:24:08.200Z,6.10
2023-02-11T18:26:37.001Z,6.10
2023-02-11T18:29:06.911Z,6.10
2023-02-11T18:31:36.499Z,6.20
2023-02-11T18:34:05.538Z,6.20
2023-02-11T18:36:34.523Z,6.10
2023-02-11T18:39:02.755Z,6.10
2023-02-11T18:41:32.434Z,6.00
2023-02-11T18:44:03.034Z,6.00
2023-02-11T18:46:32.128Z,5.90
2023-02-11T18:49:00.169Z,5.80
2023-02-11T18:51:28.677Z,5.80
2023-02-11T18:53:58.273Z,5.80
2023-02-11T18:56:27.738Z,5.70
2023-02-11T18:58:58.460Z,5.60
2023-02-11T19:01:27.837Z,5.60
2023-02-11T19:03:57.561Z,5.60
2023-02-11T19:06:26.814Z,5.60
2023-02-11T19:08:57.451Z,5.50
2023-02-11T19:11:40.950Z,5.50
2023-02-11T19:14:11.446Z,5.50
2023-02-11T19:16:40.301Z,5.50
2023-02-11T19:19:08.971Z,5.40
2023-02-11T19:21:37.030Z,5.30
2023-02-11T19:24:07.477Z,5.20
2023-02-11T19:26:36.697Z,5.10
2023-02-11T19:29:04.795Z,5.10
2023-02-11T19:31:34.754Z,5.10
2023-02-11T19:34:03.478Z,5.10
2023-02-11T19:36:32.074Z,5.00
2023-02-11T19:39:00.773Z,4.80
2023-02-11T19:41:31.318Z,4.80
2023-02-11T19:43:59.356Z,4.80
2023-02-11T19:46:29.495Z,4.80
2023-02-11T19:48:59.603Z,4.80
2023-02-11T19:51:28.548Z,4.80
2023-02-11T19:53:56.797Z,4.90
2023-02-11T19:56:25.208Z,4.90
2023-02-11T19:58:53.816Z,5.00
2023-02-11T20:01:22.707Z,5.00
2023-02-11T20:03:52.426Z,5.00
2023-02-11T20:06:23.518Z,5.00
2023-02-11T20:08:57.166Z,5.00
2023-02-11T20:11:28.029Z,5.00
2023-02-11T20:13:56.871Z,4.90
2023-02-11T20:16:37.096Z,5.10
2023-02-11T20:19:18.583Z,5.10
2023-02-11T20:21:49.482Z,5.00
2023-02-11T20:24:19.943Z,4.90
2023-02-11T20:26:48.716Z,4.90
2023-02-11T20:29:17.250Z,4.80
2023-02-11T20:31:45.985Z,4.70
2023-02-11T20:34:14.417Z,4.60
2023-02-11T20:36:43.252Z,4.50
2023-02-11T20:39:17.145Z,4.50
2023-02-11T20:41:46.393Z,4.50
2023-02-11T20:44:14.731Z,4.60
2023-02-11T20:46:46.075Z,4.70
2023-02-11T20:49:15.021Z,4.70
2023-02-11T20:51:43.612Z,4.70
2023-02-11T20:54:14.135Z,4.80
2023-02-11T20:56:43.708Z,4.90
2023-02-11T20:59:13.748Z,4.90
2023-02-11T21:01:43.199Z,5.00
2023-02-11T21:04:12.567Z,5.10
2023-02-11T21:06:42.510Z,5.10
2023-02-11T21:09:13.496Z,5.10
2023-02-11T21:11:43.469Z,5.10
2023-02-11T21:14:12.444Z,4.90
2023-02-11T21:16:40.894Z,4.70
2023-02-11T21:19:09.057Z,4.70
2023-02-11T21:21:37.727Z,4.70
2023-02-11T21:24:06.458Z,4.80
2023-02-11T21:26:38.251Z,5.00
2023-02-11T21:29:13.552Z,4.90
2023-02-11T21:31:41.774Z,5.10
2023-02-11T21:34:10.821Z,5.10
2023-02-11T21:36:39.511Z,5.20
2023-02-11T21:39:10.193Z,5.20
2023-02-11T21:41:38.199Z,5.30
2023-02-11T21:44:06.910Z,5.30
2023-02-11T21:46:36.273Z,5.40
2023-02-11T21:49:04.742Z,5.40
2023-02-11T21:51:32.727Z,5.30
2023-02-11T21:54:02.354Z,5.20
2023-02-11T21:56:31.331Z,5.10
2023-02-11T21:59:00.261Z,5.10
2023-02-11T22:01:28.947Z,5.00
2023-02-11T22:03:59.825Z,5.00
2023-02-11T22:06:31.050Z,5.10
2023-02-11T22:08:59.926Z,5.10
2023-02-11T22:11:28.776Z,5.10
2023-02-11T22:13:57.800Z,5.10
2023-02-11T22:16:27.376Z,5.20
2023-02-11T22:18:57.519Z,5.20
2023-02-11T22:21:27.696Z,5.30
2023-02-11T22:23:56.673Z,5.30
2023-02-11T22:26:27.235Z,5.40
2023-02-11T22:28:56.187Z,5.40
2023-02-11T22:31:25.634Z,5.40
2023-02-11T22:33:53.870Z,5.40
2023-02-11T22:36:23.165Z,5.40
2023-02-11T22:38:53.098Z,5.40
2023-02-11T22:41:21.581Z,5.40
2023-02-11T22:43:50.182Z,5.50
2023-02-11T22:46:19.695Z,5.50
2023-02-11T22:48:48.336Z,5.50
2023-02-11T22:51:17.387Z,5.60
2023-02-11T22:53:45.575Z,5.60
2023-02-11T22:56:15.921Z,5.60
2023-02-11T22:58:44.418Z,5.70
2023-02-11T23:01:13.650Z,5.70
2023-02-11T23:03:42.688Z,5.70
2023-02-11T23:06:10.833Z,5.70
2023-02-11T23:08:40.474Z,5.70
2023-02-11T23:11:09.801Z,5.80
2023-02-11T23:13:40.163Z,5.80
2023-02-11T23:16:09.233Z,5.80
2023-02-11T23:18:37.915Z,5.80
2023-02-11T23:21:06.686Z,5.80
2023-02-11T23:23:35.061Z,5.80
2023-02-11T23:26:03.961Z,5.90
2023-02-11T23:28:32.102Z,5.90
2023-02-11T23:31:03.445Z,5.90
2023-02-11T23:33:31.575Z,5.90
2023-02-11T23:36:01.621Z,5.90
2023-02-11T23:38:29.861Z,5.90
2023-02-11T23:40:58.441Z,6.00
2023-02-11T23:43:26.581Z,6.00
2023-02-11T23:45:55.200Z,6.00
2023-02-11T23:48:25.167Z,6.00
2023-02-11T23:50:53.347Z,6.10
2023-02-11T23:53:21.992Z,6.00
2023-02-11T23:55:52.367Z,6.10
2023-02-11T23:58:20.961Z,6.10
